sensor_id;sensor_type;location;lat;lon;timestamp;pressure;altitude;pressure_sealevel;temperature;humidity
33731;BME280;22931;48.636;9.000;2023-12-07T00:43:29;96272.22;;;5.28;63.66
33731;BME280;22931;48.636;9.000;2023-12-07T00:48:36;96264.72;;;5.27;63.47
33731;BME280;22931;48.636;9.000;2023-12-07T00:59:26;96266.25;;;5.28;63.43
33731;BME280;22931;48.636;9.000;2023-12-07T01:04:38;96275.63;;;5.29;63.31
33731;BME280;22931;48.636;9.000;2023-12-07T01:09:46;96278.78;;;5.26;63.24
33731;BME280;22931;48.636;9.000;2023-12-07T01:20:39;96287.78;;;5.20;63.22
33731;BME280;22931;48.636;9.000;2023-12-07T01:25:46;96287.31;;;5.18;63.49
33731;BME280;22931;48.636;9.000;2023-12-07T01:30:54;96289.44;;;5.16;63.53
33731;BME280;22931;48.636;9.000;2023-12-07T01:36:04;96296.00;;;5.13;63.18
33731;BME280;22931;48.636;9.000;2023-12-07T01:41:12;96301.22;;;5.13;63.50
33731;BME280;22931;48.636;9.000;2023-12-07T01:46:19;96319.28;;;5.10;63.27
33731;BME280;22931;48.636;9.000;2023-12-07T01:57:10;96318.97;;;4.98;63.35
33731;BME280;22931;48.636;9.000;2023-12-07T02:02:17;96314.88;;;4.92;63.46
33731;BME280;22931;48.636;9.000;2023-12-07T02:07:26;96312.88;;;4.89;63.27
33731;BME280;22931;48.636;9.000;2023-12-07T02:12:36;96321.25;;;4.86;63.42
33731;BME280;22931;48.636;9.000;2023-12-07T02:17:46;96316.34;;;4.84;63.43
33731;BME280;22931;48.636;9.000;2023-12-07T02:28:39;96304.75;;;4.77;63.47
33731;BME280;22931;48.636;9.000;2023-12-07T02:33:46;96300.56;;;4.76;63.59
33731;BME280;22931;48.636;9.000;2023-12-07T02:38:56;96307.91;;;4.74;63.47
33731;BME280;22931;48.636;9.000;2023-12-07T02:44:08;96303.47;;;4.74;63.62
33731;BME280;22931;48.636;9.000;2023-12-07T02:49:16;96297.00;;;4.72;63.72
33731;BME280;22931;48.636;9.000;2023-12-07T02:54:23;96302.78;;;4.68;63.41
33731;BME280;22931;48.636;9.000;2023-12-07T02:59:33;96299.22;;;4.64;63.41
33731;BME280;22931;48.636;9.000;2023-12-07T03:04:41;96300.53;;;4.62;63.49
33731;BME280;22931;48.636;9.000;2023-12-07T03:09:48;96309.72;;;4.59;63.40
33731;BME280;22931;48.636;9.000;2023-12-07T03:20:21;96308.31;;;4.48;63.69
33731;BME280;22931;48.636;9.000;2023-12-07T03:25:28;96312.25;;;4.46;63.56
33731;BME280;22931;48.636;9.000;2023-12-07T03:36:18;96309.22;;;4.39;63.76
33731;BME280;22931;48.636;9.000;2023-12-07T03:41:26;96317.81;;;4.39;63.71
33731;BME280;22931;48.636;9.000;2023-12-07T03:46:34;96328.25;;;4.39;63.73
33731;BME280;22931;48.636;9.000;2023-12-07T04:03:03;96326.56;;;4.30;63.58
33731;BME280;22931;48.636;9.000;2023-12-07T04:08:11;96320.88;;;4.28;63.79
33731;BME280;22931;48.636;9.000;2023-12-07T04:13:18;96323.75;;;4.26;63.90
33731;BME280;22931;48.636;9.000;2023-12-07T04:18:28;96338.09;;;4.24;63.84
33731;BME280;22931;48.636;9.000;2023-12-07T04:23:36;96335.31;;;4.20;63.71
33731;BME280;22931;48.636;9.000;2023-12-07T04:28:43;96342.88;;;4.17;63.55
33731;BME280;22931;48.636;9.000;2023-12-07T04:39:33;96334.47;;;4.06;63.58
33731;BME280;22931;48.636;9.000;2023-12-07T04:44:41;96344.66;;;4.03;63.56
33731;BME280;22931;48.636;9.000;2023-12-07T04:49:48;96334.78;;;3.99;63.57
33731;BME280;22931;48.636;9.000;2023-12-07T05:00:25;96342.22;;;3.87;63.53
33731;BME280;22931;48.636;9.000;2023-12-07T05:05:32;96327.19;;;3.84;63.74
33731;BME280;22931;48.636;9.000;2023-12-07T05:10:40;96332.19;;;3.81;63.67
33731;BME280;22931;48.636;9.000;2023-12-07T05:21:31;96354.09;;;3.75;63.74
33731;BME280;22931;48.636;9.000;2023-12-07T05:26:40;96347.91;;;3.71;63.78
33731;BME280;22931;48.636;9.000;2023-12-07T05:31:48;96347.13;;;3.70;63.53
33731;BME280;22931;48.636;9.000;2023-12-07T05:36:58;96346.94;;;3.67;63.49
33731;BME280;22931;48.636;9.000;2023-12-07T05:42:05;96347.47;;;3.64;63.42
33731;BME280;22931;48.636;9.000;2023-12-07T05:47:13;96339.22;;;3.57;63.47
33731;BME280;22931;48.636;9.000;2023-12-07T05:52:23;96345.28;;;3.52;63.59
33731;BME280;22931;48.636;9.000;2023-12-07T05:57:31;96334.63;;;3.49;63.56
33731;BME280;22931;48.636;9.000;2023-12-07T06:02:38;96338.31;;;3.48;63.64
33731;BME280;22931;48.636;9.000;2023-12-07T06:07:48;96337.53;;;3.47;63.84
33731;BME280;22931;48.636;9.000;2023-12-07T06:12:58;96338.06;;;3.44;63.66
33731;BME280;22931;48.636;9.000;2023-12-07T06:23:48;96329.06;;;3.37;63.64
33731;BME280;22931;48.636;9.000;2023-12-07T06:28:55;96341.06;;;3.32;63.81
33731;BME280;22931;48.636;9.000;2023-12-07T06:34:03;96356.66;;;3.32;63.51
33731;BME280;22931;48.636;9.000;2023-12-07T06:44:53;96354.94;;;3.23;63.60
33731;BME280;22931;48.636;9.000;2023-12-07T06:50:00;96357.06;;;3.21;63.84
33731;BME280;22931;48.636;9.000;2023-12-07T06:55:11;96352.66;;;3.16;63.48
33731;BME280;22931;48.636;9.000;2023-12-07T07:00:21;96347.78;;;3.10;63.65
33731;BME280;22931;48.636;9.000;2023-12-07T07:29:29;96337.13;;;2.83;63.82
33731;BME280;22931;48.636;9.000;2023-12-07T07:42:02;96351.63;;;2.60;64.09
33731;BME280;22931;48.636;9.000;2023-12-07T07:53:45;96362.31;;;2.48;64.29
33731;BME280;22931;48.636;9.000;2023-12-07T12:07:08;96140.66;;;5.92;56.79
33731;BME280;22931;48.636;9.000;2023-12-07T12:31:23;96080.81;;;6.05;56.92
33731;BME280;22931;48.636;9.000;2023-12-07T12:37:21;96069.78;;;6.08;55.92
33731;BME280;22931;48.636;9.000;2023-12-07T12:43:03;96077.28;;;6.09;55.76
33731;BME280;22931;48.636;9.000;2023-12-07T12:48:58;96065.78;;;6.10;55.58
33731;BME280;22931;48.636;9.000;2023-12-07T13:00:34;96066.13;;;6.17;54.55
33731;BME280;22931;48.636;9.000;2023-12-07T13:12:23;96058.94;;;6.23;54.83
33731;BME280;22931;48.636;9.000;2023-12-07T13:20:21;96047.41;;;6.24;53.97
33731;BME280;22931;48.636;9.000;2023-12-07T13:24:11;96057.06;;;6.23;54.89
33731;BME280;22931;48.636;9.000;2023-12-07T13:29:46;96060.91;;;6.26;55.01
33731;BME280;22931;48.636;9.000;2023-12-07T13:35:32;96066.16;;;6.26;54.36
33731;BME280;22931;48.636;9.000;2023-12-07T13:41:37;96057.72;;;6.29;54.50
33731;BME280;22931;48.636;9.000;2023-12-07T13:47:27;96039.44;;;6.29;53.78
33731;BME280;22931;48.636;9.000;2023-12-07T13:53:33;96052.50;;;6.29;52.99
33731;BME280;22931;48.636;9.000;2023-12-07T13:59:14;96032.03;;;6.31;53.96
33731;BME280;22931;48.636;9.000;2023-12-07T14:05:03;96034.97;;;6.29;52.49
33731;BME280;22931;48.636;9.000;2023-12-07T14:10:26;96034.66;;;6.31;52.53
33731;BME280;22931;48.636;9.000;2023-12-07T14:16:17;96021.59;;;6.31;52.02
33731;BME280;22931;48.636;9.000;2023-12-07T14:22:23;96022.22;;;6.28;51.64
33731;BME280;22931;48.636;9.000;2023-12-07T14:28:04;96032.03;;;6.22;51.74
33731;BME280;22931;48.636;9.000;2023-12-07T14:45:53;95987.25;;;5.98;51.93
33731;BME280;22931;48.636;9.000;2023-12-07T14:57:52;95982.38;;;5.83;52.07
33731;BME280;22931;48.636;9.000;2023-12-07T15:08:54;95954.50;;;5.70;52.12
33731;BME280;22931;48.636;9.000;2023-12-07T15:14:20;95946.53;;;5.66;51.91
33731;BME280;22931;48.636;9.000;2023-12-07T15:19:54;95949.75;;;5.63;52.78
33731;BME280;22931;48.636;9.000;2023-12-07T15:31:01;95949.72;;;5.55;52.19
33731;BME280;22931;48.636;9.000;2023-12-07T15:36:09;95950.59;;;5.50;52.77
33731;BME280;22931;48.636;9.000;2023-12-07T15:41:44;95947.94;;;5.42;52.49
33731;BME280;22931;48.636;9.000;2023-12-07T15:47:15;95934.84;;;5.33;52.67
33731;BME280;22931;48.636;9.000;2023-12-07T15:52:38;95929.59;;;5.24;52.51
33731;BME280;22931;48.636;9.000;2023-12-07T15:59:31;95924.34;;;5.16;53.06
33731;BME280;22931;48.636;9.000;2023-12-07T17:08:38;95850.72;;;4.44;54.82
33731;BME280;22931;48.636;9.000;2023-12-07T17:14:45;95851.28;;;4.41;54.29
33731;BME280;22931;48.636;9.000;2023-12-07T17:22:27;95845.63;;;4.39;55.49
33731;BME280;22931;48.636;9.000;2023-12-07T17:26:12;95832.44;;;4.35;56.02
33731;BME280;22931;48.636;9.000;2023-12-07T17:32:34;95828.38;;;4.29;55.19
33731;BME280;22931;48.636;9.000;2023-12-07T17:56:05;95790.63;;;4.18;55.04
33731;BME280;22931;48.636;9.000;2023-12-07T18:08:13;95795.84;;;4.18;55.46
33731;BME280;22931;48.636;9.000;2023-12-07T18:20:13;95788.97;;;4.22;56.01
33731;BME280;22931;48.636;9.000;2023-12-07T18:25:58;95784.81;;;4.21;56.12
33731;BME280;22931;48.636;9.000;2023-12-07T18:38:01;95761.00;;;4.06;55.54
33731;BME280;22931;48.636;9.000;2023-12-07T18:43:39;95764.47;;;4.01;56.03
33731;BME280;22931;48.636;9.000;2023-12-07T20:54:50;95617.59;;;4.24;57.71
33731;BME280;22931;48.636;9.000;2023-12-07T23:13:52;95426.94;;;4.27;58.57
33731;BME280;22931;48.636;9.000;2023-12-07T23:25:52;95384.22;;;4.28;58.94
